sensor_id;sensor_type;location;lat;lon;timestamp;P1;durP1;ratioP1;P2;durP2;ratioP2
21825;SDS011;11075;47.944;11.776;2023-06-24T00:00:02;2.33;;;2.08;;
21825;SDS011;11075;47.944;11.776;2023-06-24T00:02:34;3.72;;;2.60;;
21825;SDS011;11075;47.944;11.776;2023-06-24T00:05:03;2.85;;;2.55;;
21825;SDS011;11075;47.944;11.776;2023-06-24T00:07:33;4.25;;;2.85;;
21825;SDS011;11075;47.944;11.776;2023-06-24T00:10:02;2.97;;;2.22;;
21825;SDS011;11075;47.944;11.776;2023-06-24T00:12:30;3.10;;;2.80;;
21825;SDS011;11075;47.944;11.776;2023-06-24T00:14:56;3.28;;;2.60;;
21825;SDS011;11075;47.944;11.776;2023-06-24T00:17:23;3.42;;;2.50;;
21825;SDS011;11075;47.944;11.776;2023-06-24T00:19:50;3.78;;;2.70;;
21825;SDS011;11075;47.944;11.776;2023-06-24T00:22:21;6.78;;;2.53;;
21825;SDS011;11075;47.944;11.776;2023-06-24T00:24:48;4.25;;;2.60;;
21825;SDS011;11075;47.944;11.776;2023-06-24T00:27:16;4.45;;;2.72;;
21825;SDS011;11075;47.944;11.776;2023-06-24T00:29:43;2.85;;;2.60;;
21825;SDS011;11075;47.944;11.776;2023-06-24T00:32:11;2.90;;;2.47;;
21825;SDS011;11075;47.944;11.776;2023-06-24T00:34:37;3.67;;;2.70;;
21825;SDS011;11075;47.944;11.776;2023-06-24T00:37:04;4.78;;;3.13;;
21825;SDS011;11075;47.944;11.776;2023-06-24T00:39:32;3.20;;;2.60;;
21825;SDS011;11075;47.944;11.776;2023-06-24T00:42:00;3.05;;;2.65;;
21825;SDS011;11075;47.944;11.776;2023-06-24T00:44:27;3.55;;;2.83;;
21825;SDS011;11075;47.944;11.776;2023-06-24T00:46:54;3.17;;;2.83;;
21825;SDS011;11075;47.944;11.776;2023-06-24T00:49:21;3.15;;;2.85;;
21825;SDS011;11075;47.944;11.776;2023-06-24T00:51:47;6.07;;;3.28;;
21825;SDS011;11075;47.944;11.776;2023-06-24T00:54:17;3.33;;;2.97;;
21825;SDS011;11075;47.944;11.776;2023-06-24T00:56:44;3.85;;;3.10;;
21825;SDS011;11075;47.944;11.776;2023-06-24T00:59:14;4.30;;;3.13;;
21825;SDS011;11075;47.944;11.776;2023-06-24T01:01:43;4.72;;;3.60;;
21825;SDS011;11075;47.944;11.776;2023-06-24T01:04:11;3.65;;;2.75;;
21825;SDS011;11075;47.944;11.776;2023-06-24T01:06:38;6.50;;;3.03;;
21825;SDS011;11075;47.944;11.776;2023-06-24T01:09:10;3.55;;;3.05;;
21825;SDS011;11075;47.944;11.776;2023-06-24T01:11:37;3.15;;;2.85;;
21825;SDS011;11075;47.944;11.776;2023-06-24T01:14:05;3.97;;;2.70;;
21825;SDS011;11075;47.944;11.776;2023-06-24T01:19:26;5.03;;;3.40;;
21825;SDS011;11075;47.944;11.776;2023-06-24T01:25:02;3.33;;;3.03;;
21825;SDS011;11075;47.944;11.776;2023-06-24T01:33:21;4.40;;;3.08;;
21825;SDS011;11075;47.944;11.776;2023-06-24T01:35:52;5.30;;;3.55;;
21825;SDS011;11075;47.944;11.776;2023-06-24T01:38:43;4.65;;;3.20;;
21825;SDS011;11075;47.944;11.776;2023-06-24T01:41:19;4.13;;;3.25;;
21825;SDS011;11075;47.944;11.776;2023-06-24T01:43:49;5.05;;;3.47;;
21825;SDS011;11075;47.944;11.776;2023-06-24T01:46:21;4.78;;;3.30;;
21825;SDS011;11075;47.944;11.776;2023-06-24T01:48:49;4.35;;;3.10;;
21825;SDS011;11075;47.944;11.776;2023-06-24T01:51:20;4.07;;;3.03;;
21825;SDS011;11075;47.944;11.776;2023-06-24T01:53:53;3.70;;;3.13;;
21825;SDS011;11075;47.944;11.776;2023-06-24T01:56:25;3.90;;;3.47;;
21825;SDS011;11075;47.944;11.776;2023-06-24T01:58:54;3.40;;;3.10;;
21825;SDS011;11075;47.944;11.776;2023-06-24T02:01:23;3.80;;;3.10;;
21825;SDS011;11075;47.944;11.776;2023-06-24T02:03:51;4.82;;;3.53;;
21825;SDS011;11075;47.944;11.776;2023-06-24T02:06:20;4.68;;;3.22;;
21825;SDS011;11075;47.944;11.776;2023-06-24T02:08:48;3.88;;;3.25;;
21825;SDS011;11075;47.944;11.776;2023-06-24T02:11:18;4.18;;;3.53;;
21825;SDS011;11075;47.944;11.776;2023-06-24T02:13:47;3.75;;;3.10;;
21825;SDS011;11075;47.944;11.776;2023-06-24T02:16:15;3.70;;;3.15;;
21825;SDS011;11075;47.944;11.776;2023-06-24T02:18:44;3.85;;;3.15;;
21825;SDS011;11075;47.944;11.776;2023-06-24T02:21:11;6.40;;;3.72;;
21825;SDS011;11075;47.944;11.776;2023-06-24T02:23:39;3.42;;;3.13;;
21825;SDS011;11075;47.944;11.776;2023-06-24T02:26:06;3.17;;;2.88;;
21825;SDS011;11075;47.944;11.776;2023-06-24T02:28:34;3.88;;;2.97;;
21825;SDS011;11075;47.944;11.776;2023-06-24T02:31:02;4.57;;;3.20;;
21825;SDS011;11075;47.944;11.776;2023-06-24T02:33:30;5.38;;;3.20;;
21825;SDS011;11075;47.944;11.776;2023-06-24T02:35:58;3.80;;;3.35;;
21825;SDS011;11075;47.944;11.776;2023-06-24T02:38:25;4.95;;;3.72;;
21825;SDS011;11075;47.944;11.776;2023-06-24T02:40:54;5.03;;;3.60;;
21825;SDS011;11075;47.944;11.776;2023-06-24T02:43:21;4.03;;;3.20;;
21825;SDS011;11075;47.944;11.776;2023-06-24T02:45:48;6.18;;;4.35;;
21825;SDS011;11075;47.944;11.776;2023-06-24T02:48:17;4.05;;;3.30;;
21825;SDS011;11075;47.944;11.776;2023-06-24T02:50:46;7.25;;;3.35;;
21825;SDS011;11075;47.944;11.776;2023-06-24T02:53:14;4.25;;;3.38;;
21825;SDS011;11075;47.944;11.776;2023-06-24T02:55:42;3.97;;;3.38;;
21825;SDS011;11075;47.944;11.776;2023-06-24T02:58:10;6.25;;;3.70;;
21825;SDS011;11075;47.944;11.776;2023-06-24T03:00:54;4.25;;;3.50;;
21825;SDS011;11075;47.944;11.776;2023-06-24T03:03:31;3.88;;;3.30;;
21825;SDS011;11075;47.944;11.776;2023-06-24T03:05:59;4.68;;;3.63;;
21825;SDS011;11075;47.944;11.776;2023-06-24T03:08:29;3.83;;;3.10;;
21825;SDS011;11075;47.944;11.776;2023-06-24T03:10:56;4.03;;;3.30;;
21825;SDS011;11075;47.944;11.776;2023-06-24T03:13:27;4.63;;;3.30;;
21825;SDS011;11075;47.944;11.776;2023-06-24T03:16:13;4.50;;;3.33;;
21825;SDS011;11075;47.944;11.776;2023-06-24T03:18:49;3.55;;;3.15;;
21825;SDS011;11075;47.944;11.776;2023-06-24T03:21:16;4.28;;;3.30;;
21825;SDS011;11075;47.944;11.776;2023-06-24T03:23:43;4.82;;;3.42;;
21825;SDS011;11075;47.944;11.776;2023-06-24T03:26:12;6.00;;;4.10;;
21825;SDS011;11075;47.944;11.776;2023-06-24T03:28:41;4.65;;;3.20;;
21825;SDS011;11075;47.944;11.776;2023-06-24T03:31:13;5.15;;;3.28;;
21825;SDS011;11075;47.944;11.776;2023-06-24T03:33:42;3.97;;;3.13;;
21825;SDS011;11075;47.944;11.776;2023-06-24T03:36:12;3.63;;;3.28;;
21825;SDS011;11075;47.944;11.776;2023-06-24T03:38:39;5.45;;;3.50;;
21825;SDS011;11075;47.944;11.776;2023-06-24T03:41:07;5.35;;;3.63;;
21825;SDS011;11075;47.944;11.776;2023-06-24T03:43:34;3.42;;;3.05;;
21825;SDS011;11075;47.944;11.776;2023-06-24T03:46:01;4.53;;;3.58;;
21825;SDS011;11075;47.944;11.776;2023-06-24T03:48:28;4.00;;;3.13;;
21825;SDS011;11075;47.944;11.776;2023-06-24T03:50:55;4.13;;;3.50;;
21825;SDS011;11075;47.944;11.776;2023-06-24T03:53:22;4.38;;;3.13;;
21825;SDS011;11075;47.944;11.776;2023-06-24T03:55:50;3.97;;;3.17;;
21825;SDS011;11075;47.944;11.776;2023-06-24T03:58:17;5.13;;;3.42;;
21825;SDS011;11075;47.944;11.776;2023-06-24T04:00:44;4.15;;;2.90;;
21825;SDS011;11075;47.944;11.776;2023-06-24T04:03:11;3.85;;;3.40;;
21825;SDS011;11075;47.944;11.776;2023-06-24T04:05:38;4.28;;;3.50;;
21825;SDS011;11075;47.944;11.776;2023-06-24T04:08:05;7.93;;;3.58;;
21825;SDS011;11075;47.944;11.776;2023-06-24T04:10:34;4.18;;;3.63;;
21825;SDS011;11075;47.944;11.776;2023-06-24T04:13:01;3.30;;;3.00;;
21825;SDS011;11075;47.944;11.776;2023-06-24T04:15:27;5.05;;;3.53;;
21825;SDS011;11075;47.944;11.776;2023-06-24T04:17:54;6.57;;;3.35;;
21825;SDS011;11075;47.944;11.776;2023-06-24T04:20:21;4.45;;;3.40;;
21825;SDS011;11075;47.944;11.776;2023-06-24T04:22:50;3.47;;;3.17;;
21825;SDS011;11075;47.944;11.776;2023-06-24T04:25:17;4.15;;;3.22;;
21825;SDS011;11075;47.944;11.776;2023-06-24T04:27:43;3.38;;;3.08;;
21825;SDS011;11075;47.944;11.776;2023-06-24T04:30:11;4.80;;;3.70;;
21825;SDS011;11075;47.944;11.776;2023-06-24T04:32:38;3.58;;;3.22;;
21825;SDS011;11075;47.944;11.776;2023-06-24T04:35:05;4.18;;;3.63;;
21825;SDS011;11075;47.944;11.776;2023-06-24T04:37:34;4.05;;;3.65;;
21825;SDS011;11075;47.944;11.776;2023-06-24T04:40:01;3.85;;;3.30;;
21825;SDS011;11075;47.944;11.776;2023-06-24T04:42:29;4.38;;;3.10;;
21825;SDS011;11075;47.944;11.776;2023-06-24T04:44:56;3.60;;;3.20;;
21825;SDS011;11075;47.944;11.776;2023-06-24T04:47:23;6.25;;;3.08;;
21825;SDS011;11075;47.944;11.776;2023-06-24T04:49:50;3.67;;;3.28;;
21825;SDS011;11075;47.944;11.776;2023-06-24T04:52:17;4.13;;;3.45;;
21825;SDS011;11075;47.944;11.776;2023-06-24T04:54:43;4.25;;;3.58;;
21825;SDS011;11075;47.944;11.776;2023-06-24T04:57:25;3.70;;;3.38;;
21825;SDS011;11075;47.944;11.776;2023-06-24T04:59:53;4.78;;;3.15;;
21825;SDS011;11075;47.944;11.776;2023-06-24T05:02:20;7.97;;;3.15;;
21825;SDS011;11075;47.944;11.776;2023-06-24T05:04:47;4.13;;;3.55;;
21825;SDS011;11075;47.944;11.776;2023-06-24T05:07:14;3.95;;;3.30;;
21825;SDS011;11075;47.944;11.776;2023-06-24T05:09:42;3.58;;;3.13;;
21825;SDS011;11075;47.944;11.776;2023-06-24T05:12:10;4.03;;;3.20;;
21825;SDS011;11075;47.944;11.776;2023-06-24T05:14:37;3.65;;;3.20;;
21825;SDS011;11075;47.944;11.776;2023-06-24T05:17:04;4.57;;;2.97;;
21825;SDS011;11075;47.944;11.776;2023-06-24T05:19:31;3.90;;;2.92;;
21825;SDS011;11075;47.944;11.776;2023-06-24T05:21:59;4.22;;;2.95;;
21825;SDS011;11075;47.944;11.776;2023-06-24T05:24:26;3.10;;;2.80;;
21825;SDS011;11075;47.944;11.776;2023-06-24T05:26:52;4.00;;;3.05;;
21825;SDS011;11075;47.944;11.776;2023-06-24T05:29:19;2.95;;;2.40;;
21825;SDS011;11075;47.944;11.776;2023-06-24T05:31:46;3.95;;;3.28;;
21825;SDS011;11075;47.944;11.776;2023-06-24T05:34:13;3.95;;;2.78;;
21825;SDS011;11075;47.944;11.776;2023-06-24T05:36:40;3.30;;;2.80;;
21825;SDS011;11075;47.944;11.776;2023-06-24T05:39:07;4.35;;;3.00;;
21825;SDS011;11075;47.944;11.776;2023-06-24T05:41:34;4.95;;;3.13;;
21825;SDS011;11075;47.944;11.776;2023-06-24T05:44:03;3.88;;;3.05;;
21825;SDS011;11075;47.944;11.776;2023-06-24T05:46:31;5.05;;;2.90;;
21825;SDS011;11075;47.944;11.776;2023-06-24T05:48:58;2.88;;;2.60;;
21825;SDS011;11075;47.944;11.776;2023-06-24T05:51:25;5.05;;;2.85;;
21825;SDS011;11075;47.944;11.776;2023-06-24T05:53:52;6.55;;;2.80;;
21825;SDS011;11075;47.944;11.776;2023-06-24T05:56:19;3.40;;;2.88;;
21825;SDS011;11075;47.944;11.776;2023-06-24T05:58:48;3.53;;;2.97;;
21825;SDS011;11075;47.944;11.776;2023-06-24T06:01:15;3.80;;;2.67;;
21825;SDS011;11075;47.944;11.776;2023-06-24T06:03:42;3.38;;;2.47;;
21825;SDS011;11075;47.944;11.776;2023-06-24T06:06:09;3.10;;;2.50;;
21825;SDS011;11075;47.944;11.776;2023-06-24T06:08:36;7.25;;;2.88;;
21825;SDS011;11075;47.944;11.776;2023-06-24T06:11:02;6.40;;;2.90;;
21825;SDS011;11075;47.944;11.776;2023-06-24T06:13:30;3.10;;;2.80;;
21825;SDS011;11075;47.944;11.776;2023-06-24T06:15:57;2.85;;;2.40;;
21825;SDS011;11075;47.944;11.776;2023-06-24T06:18:24;3.03;;;2.67;;
21825;SDS011;11075;47.944;11.776;2023-06-24T06:20:51;3.03;;;2.58;;
21825;SDS011;11075;47.944;11.776;2023-06-24T06:23:18;3.25;;;2.20;;
21825;SDS011;11075;47.944;11.776;2023-06-24T06:25:45;4.13;;;2.70;;
21825;SDS011;11075;47.944;11.776;2023-06-24T06:28:14;2.65;;;2.45;;
21825;SDS011;11075;47.944;11.776;2023-06-24T06:30:41;2.58;;;2.38;;
21825;SDS011;11075;47.944;11.776;2023-06-24T06:33:08;3.20;;;2.75;;
21825;SDS011;11075;47.944;11.776;2023-06-24T06:35:35;2.42;;;2.22;;
21825;SDS011;11075;47.944;11.776;2023-06-24T06:38:02;2.92;;;2.40;;
21825;SDS011;11075;47.944;11.776;2023-06-24T06:40:29;3.47;;;2.60;;
21825;SDS011;11075;47.944;11.776;2023-06-24T06:42:56;5.53;;;2.90;;
21825;SDS011;11075;47.944;11.776;2023-06-24T06:45:22;4.72;;;2.58;;
21825;SDS011;11075;47.944;11.776;2023-06-24T06:47:49;2.70;;;2.40;;
21825;SDS011;11075;47.944;11.776;2023-06-24T06:50:17;2.33;;;2.13;;
21825;SDS011;11075;47.944;11.776;2023-06-24T06:52:44;2.53;;;2.33;;
21825;SDS011;11075;47.944;11.776;2023-06-24T06:55:11;3.83;;;2.47;;
21825;SDS011;11075;47.944;11.776;2023-06-24T06:57:37;2.75;;;2.30;;
21825;SDS011;11075;47.944;11.776;2023-06-24T07:00:04;2.63;;;2.42;;
21825;SDS011;11075;47.944;11.776;2023-06-24T07:02:32;3.83;;;2.70;;
21825;SDS011;11075;47.944;11.776;2023-06-24T07:04:59;4.28;;;2.63;;
21825;SDS011;11075;47.944;11.776;2023-06-24T07:07:27;2.80;;;2.55;;
21825;SDS011;11075;47.944;11.776;2023-06-24T07:09:54;3.88;;;2.63;;
21825;SDS011;11075;47.944;11.776;2023-06-24T07:12:21;3.47;;;2.47;;
21825;SDS011;11075;47.944;11.776;2023-06-24T07:14:50;2.50;;;2.20;;
21825;SDS011;11075;47.944;11.776;2023-06-24T07:17:17;2.90;;;2.60;;
21825;SDS011;11075;47.944;11.776;2023-06-24T07:19:44;4.68;;;2.70;;
21825;SDS011;11075;47.944;11.776;2023-06-24T07:22:11;3.67;;;2.58;;
21825;SDS011;11075;47.944;11.776;2023-06-24T07:24:38;2.58;;;2.28;;
21825;SDS011;11075;47.944;11.776;2023-06-24T07:27:05;6.20;;;2.60;;
21825;SDS011;11075;47.944;11.776;2023-06-24T07:29:32;2.53;;;2.25;;
21825;SDS011;11075;47.944;11.776;2023-06-24T07:31:59;5.05;;;2.17;;
21825;SDS011;11075;47.944;11.776;2023-06-24T07:34:26;2.60;;;2.40;;
21825;SDS011;11075;47.944;11.776;2023-06-24T07:36:53;3.40;;;2.38;;
21825;SDS011;11075;47.944;11.776;2023-06-24T07:39:20;4.10;;;2.65;;
21825;SDS011;11075;47.944;11.776;2023-06-24T07:41:47;3.42;;;2.67;;
21825;SDS011;11075;47.944;11.776;2023-06-24T07:44:13;6.85;;;2.35;;
21825;SDS011;11075;47.944;11.776;2023-06-24T07:46:40;2.83;;;2.33;;
21825;SDS011;11075;47.944;11.776;2023-06-24T07:49:07;2.38;;;2.17;;
21825;SDS011;11075;47.944;11.776;2023-06-24T07:51:34;2.70;;;2.33;;
21825;SDS011;11075;47.944;11.776;2023-06-24T07:54:01;4.13;;;2.67;;
21825;SDS011;11075;47.944;11.776;2023-06-24T07:56:28;3.03;;;2.40;;
21825;SDS011;11075;47.944;11.776;2023-06-24T07:58:55;2.58;;;2.08;;
21825;SDS011;11075;47.944;11.776;2023-06-24T08:01:22;2.67;;;2.45;;
21825;SDS011;11075;47.944;11.776;2023-06-24T08:03:49;2.40;;;2.20;;
21825;SDS011;11075;47.944;11.776;2023-06-24T08:06:16;2.20;;;1.95;;
21825;SDS011;11075;47.944;11.776;2023-06-24T08:08:42;2.47;;;2.28;;
21825;SDS011;11075;47.944;11.776;2023-06-24T08:11:09;2.65;;;2.33;;
21825;SDS011;11075;47.944;11.776;2023-06-24T08:13:36;2.55;;;2.08;;
21825;SDS011;11075;47.944;11.776;2023-06-24T08:16:03;2.58;;;2.05;;
21825;SDS011;11075;47.944;11.776;2023-06-24T08:18:30;2.63;;;2.20;;
21825;SDS011;11075;47.944;11.776;2023-06-24T08:20:56;2.72;;;2.30;;
21825;SDS011;11075;47.944;11.776;2023-06-24T08:23:23;2.58;;;2.10;;
21825;SDS011;11075;47.944;11.776;2023-06-24T08:25:50;2.28;;;2.00;;
21825;SDS011;11075;47.944;11.776;2023-06-24T08:28:26;2.88;;;2.00;;
21825;SDS011;11075;47.944;11.776;2023-06-24T08:30:53;3.20;;;2.40;;
21825;SDS011;11075;47.944;11.776;2023-06-24T08:33:20;2.85;;;2.53;;
21825;SDS011;11075;47.944;11.776;2023-06-24T08:35:47;3.15;;;2.85;;
21825;SDS011;11075;47.944;11.776;2023-06-24T08:38:13;3.28;;;2.33;;
21825;SDS011;11075;47.944;11.776;2023-06-24T08:40:40;3.78;;;2.13;;
21825;SDS011;11075;47.944;11.776;2023-06-24T08:43:09;8.73;;;2.60;;
21825;SDS011;11075;47.944;11.776;2023-06-24T08:45:36;2.40;;;2.20;;
21825;SDS011;11075;47.944;11.776;2023-06-24T08:48:03;5.68;;;2.50;;
21825;SDS011;11075;47.944;11.776;2023-06-24T08:50:33;4.78;;;2.50;;
21825;SDS011;11075;47.944;11.776;2023-06-24T08:53:03;3.35;;;2.40;;
21825;SDS011;11075;47.944;11.776;2023-06-24T08:55:43;3.05;;;2.38;;
21825;SDS011;11075;47.944;11.776;2023-06-24T08:58:12;3.13;;;2.40;;
21825;SDS011;11075;47.944;11.776;2023-06-24T09:00:40;2.78;;;2.58;;
21825;SDS011;11075;47.944;11.776;2023-06-24T09:03:08;2.35;;;2.15;;
21825;SDS011;11075;47.944;11.776;2023-06-24T09:05:35;3.38;;;2.55;;
21825;SDS011;11075;47.944;11.776;2023-06-24T09:08:02;3.15;;;2.65;;
21825;SDS011;11075;47.944;11.776;2023-06-24T09:10:29;4.35;;;2.60;;
21825;SDS011;11075;47.944;11.776;2023-06-24T09:12:58;2.25;;;2.00;;
21825;SDS011;11075;47.944;11.776;2023-06-24T09:15:32;3.75;;;2.40;;
21825;SDS011;11075;47.944;11.776;2023-06-24T09:17:59;3.10;;;2.28;;
21825;SDS011;11075;47.944;11.776;2023-06-24T09:20:27;3.45;;;2.40;;
21825;SDS011;11075;47.944;11.776;2023-06-24T09:23:13;4.45;;;2.30;;
21825;SDS011;11075;47.944;11.776;2023-06-24T09:25:40;4.78;;;2.50;;
21825;SDS011;11075;47.944;11.776;2023-06-24T09:28:07;3.60;;;2.67;;
21825;SDS011;11075;47.944;11.776;2023-06-24T09:30:33;4.85;;;2.80;;
21825;SDS011;11075;47.944;11.776;2023-06-24T09:33:00;3.03;;;2.58;;
21825;SDS011;11075;47.944;11.776;2023-06-24T09:35:28;4.90;;;2.80;;
21825;SDS011;11075;47.944;11.776;2023-06-24T09:38:01;3.00;;;2.70;;
21825;SDS011;11075;47.944;11.776;2023-06-24T09:40:28;5.45;;;2.75;;
21825;SDS011;11075;47.944;11.776;2023-06-24T09:42:56;3.00;;;2.67;;
21825;SDS011;11075;47.944;11.776;2023-06-24T09:45:25;3.13;;;2.83;;
21825;SDS011;11075;47.944;11.776;2023-06-24T09:47:52;4.75;;;2.85;;
21825;SDS011;11075;47.944;11.776;2023-06-24T09:50:20;7.63;;;2.65;;
21825;SDS011;11075;47.944;11.776;2023-06-24T09:52:50;3.10;;;2.78;;
21825;SDS011;11075;47.944;11.776;2023-06-24T09:55:19;3.67;;;2.60;;
21825;SDS011;11075;47.944;11.776;2023-06-24T09:57:47;2.90;;;2.58;;
21825;SDS011;11075;47.944;11.776;2023-06-24T10:00:18;3.20;;;2.50;;
21825;SDS011;11075;47.944;11.776;2023-06-24T10:02:45;3.83;;;3.22;;
21825;SDS011;11075;47.944;11.776;2023-06-24T10:05:14;3.22;;;2.65;;
21825;SDS011;11075;47.944;11.776;2023-06-24T10:07:41;3.00;;;2.67;;
21825;SDS011;11075;47.944;11.776;2023-06-24T10:10:09;4.07;;;3.13;;
21825;SDS011;11075;47.944;11.776;2023-06-24T10:15:12;4.20;;;2.40;;
21825;SDS011;11075;47.944;11.776;2023-06-24T10:18:33;3.40;;;2.50;;
21825;SDS011;11075;47.944;11.776;2023-06-24T10:21:03;4.32;;;3.03;;
21825;SDS011;11075;47.944;11.776;2023-06-24T10:23:41;3.05;;;2.75;;
21825;SDS011;11075;47.944;11.776;2023-06-24T10:26:10;3.60;;;2.65;;
21825;SDS011;11075;47.944;11.776;2023-06-24T10:29:11;3.83;;;2.58;;
21825;SDS011;11075;47.944;11.776;2023-06-24T10:45:12;4.28;;;2.80;;
21825;SDS011;11075;47.944;11.776;2023-06-24T10:47:42;5.35;;;3.10;;
21825;SDS011;11075;47.944;11.776;2023-06-24T10:50:19;4.53;;;3.35;;
21825;SDS011;11075;47.944;11.776;2023-06-24T10:52:48;5.43;;;3.20;;
21825;SDS011;11075;47.944;11.776;2023-06-24T10:55:18;3.03;;;2.72;;
21825;SDS011;11075;47.944;11.776;2023-06-24T10:57:45;3.28;;;2.97;;
21825;SDS011;11075;47.944;11.776;2023-06-24T11:00:13;3.47;;;3.10;;
21825;SDS011;11075;47.944;11.776;2023-06-24T11:02:41;4.07;;;3.30;;
21825;SDS011;11075;47.944;11.776;2023-06-24T11:05:09;3.80;;;3.30;;
21825;SDS011;11075;47.944;11.776;2023-06-24T11:07:37;6.13;;;3.10;;
21825;SDS011;11075;47.944;11.776;2023-06-24T11:10:06;4.85;;;3.28;;
21825;SDS011;11075;47.944;11.776;2023-06-24T11:12:39;5.10;;;3.30;;
21825;SDS011;11075;47.944;11.776;2023-06-24T11:15:08;3.35;;;3.05;;
21825;SDS011;11075;47.944;11.776;2023-06-24T11:17:37;3.53;;;3.13;;
21825;SDS011;11075;47.944;11.776;2023-06-24T11:20:13;3.15;;;2.47;;
21825;SDS011;11075;47.944;11.776;2023-06-24T11:22:41;4.13;;;3.17;;
21825;SDS011;11075;47.944;11.776;2023-06-24T11:25:15;5.80;;;3.10;;
21825;SDS011;11075;47.944;11.776;2023-06-24T11:27:44;7.53;;;3.25;;
21825;SDS011;11075;47.944;11.776;2023-06-24T11:30:11;4.78;;;3.00;;
21825;SDS011;11075;47.944;11.776;2023-06-24T11:32:39;4.88;;;2.78;;
21825;SDS011;11075;47.944;11.776;2023-06-24T11:35:09;5.03;;;3.40;;
21825;SDS011;11075;47.944;11.776;2023-06-24T11:37:40;6.03;;;3.25;;
21825;SDS011;11075;47.944;11.776;2023-06-24T11:40:08;4.22;;;3.17;;
21825;SDS011;11075;47.944;11.776;2023-06-24T11:42:40;6.72;;;3.33;;
21825;SDS011;11075;47.944;11.776;2023-06-24T11:45:10;4.10;;;3.47;;
21825;SDS011;11075;47.944;11.776;2023-06-24T11:47:42;5.32;;;3.60;;
21825;SDS011;11075;47.944;11.776;2023-06-24T11:50:09;5.90;;;3.80;;
21825;SDS011;11075;47.944;11.776;2023-06-24T11:52:43;4.38;;;3.10;;
21825;SDS011;11075;47.944;11.776;2023-06-24T11:55:18;4.25;;;3.28;;
21825;SDS011;11075;47.944;11.776;2023-06-24T12:00:28;6.18;;;3.08;;
21825;SDS011;11075;47.944;11.776;2023-06-24T12:02:57;5.07;;;3.45;;
21825;SDS011;11075;47.944;11.776;2023-06-24T12:05:42;3.60;;;3.13;;
21825;SDS011;11075;47.944;11.776;2023-06-24T12:08:14;3.75;;;3.17;;
21825;SDS011;11075;47.944;11.776;2023-06-24T12:10:43;3.38;;;2.97;;
21825;SDS011;11075;47.944;11.776;2023-06-24T12:13:10;5.07;;;4.18;;
21825;SDS011;11075;47.944;11.776;2023-06-24T12:15:38;4.38;;;3.92;;
21825;SDS011;11075;47.944;11.776;2023-06-24T12:18:05;4.68;;;3.08;;
21825;SDS011;11075;47.944;11.776;2023-06-24T12:20:32;3.15;;;2.70;;
21825;SDS011;11075;47.944;11.776;2023-06-24T12:23:04;3.42;;;3.13;;
21825;SDS011;11075;47.944;11.776;2023-06-24T12:25:31;3.53;;;2.60;;
21825;SDS011;11075;47.944;11.776;2023-06-24T12:27:58;4.28;;;3.50;;
21825;SDS011;11075;47.944;11.776;2023-06-24T12:30:27;3.65;;;3.35;;
21825;SDS011;11075;47.944;11.776;2023-06-24T12:32:54;3.03;;;2.72;;
21825;SDS011;11075;47.944;11.776;2023-06-24T12:35:22;3.92;;;3.10;;
21825;SDS011;11075;47.944;11.776;2023-06-24T12:37:52;3.45;;;2.70;;
21825;SDS011;11075;47.944;11.776;2023-06-24T12:40:19;3.30;;;3.00;;
21825;SDS011;11075;47.944;11.776;2023-06-24T12:42:46;3.20;;;2.85;;
21825;SDS011;11075;47.944;11.776;2023-06-24T12:45:13;3.42;;;3.10;;
21825;SDS011;11075;47.944;11.776;2023-06-24T12:47:40;3.78;;;3.10;;
21825;SDS011;11075;47.944;11.776;2023-06-24T12:50:07;4.05;;;2.92;;
21825;SDS011;11075;47.944;11.776;2023-06-24T12:52:35;4.85;;;2.88;;
21825;SDS011;11075;47.944;11.776;2023-06-24T12:55:04;3.30;;;2.97;;
21825;SDS011;11075;47.944;11.776;2023-06-24T12:57:33;4.47;;;3.40;;
21825;SDS011;11075;47.944;11.776;2023-06-24T13:00:00;4.13;;;3.70;;
21825;SDS011;11075;47.944;11.776;2023-06-24T13:02:27;4.50;;;3.10;;
21825;SDS011;11075;47.944;11.776;2023-06-24T13:04:54;8.63;;;3.00;;
21825;SDS011;11075;47.944;11.776;2023-06-24T13:07:21;3.78;;;3.13;;
21825;SDS011;11075;47.944;11.776;2023-06-24T13:09:48;11.20;;;2.95;;
21825;SDS011;11075;47.944;11.776;2023-06-24T13:12:15;3.35;;;2.80;;
21825;SDS011;11075;47.944;11.776;2023-06-24T13:14:42;3.53;;;3.20;;
21825;SDS011;11075;47.944;11.776;2023-06-24T13:17:08;4.10;;;3.42;;
21825;SDS011;11075;47.944;11.776;2023-06-24T13:19:35;4.47;;;3.15;;
21825;SDS011;11075;47.944;11.776;2023-06-24T13:22:02;3.33;;;2.90;;
21825;SDS011;11075;47.944;11.776;2023-06-24T13:24:29;3.78;;;3.35;;
21825;SDS011;11075;47.944;11.776;2023-06-24T13:26:56;4.45;;;3.35;;
21825;SDS011;11075;47.944;11.776;2023-06-24T13:29:23;2.92;;;2.60;;
21825;SDS011;11075;47.944;11.776;2023-06-24T13:31:50;3.55;;;3.00;;
21825;SDS011;11075;47.944;11.776;2023-06-24T13:34:17;3.53;;;3.22;;
21825;SDS011;11075;47.944;11.776;2023-06-24T13:36:44;3.33;;;3.03;;
21825;SDS011;11075;47.944;11.776;2023-06-24T13:39:11;4.07;;;2.83;;
21825;SDS011;11075;47.944;11.776;2023-06-24T13:41:39;3.55;;;2.97;;
21825;SDS011;11075;47.944;11.776;2023-06-24T13:44:06;5.07;;;2.75;;
21825;SDS011;11075;47.944;11.776;2023-06-24T13:46:33;3.92;;;3.03;;
21825;SDS011;11075;47.944;11.776;2023-06-24T13:49:00;3.47;;;2.90;;
21825;SDS011;11075;47.944;11.776;2023-06-24T13:51:31;2.95;;;2.75;;
21825;SDS011;11075;47.944;11.776;2023-06-24T13:53:58;4.45;;;4.05;;
21825;SDS011;11075;47.944;11.776;2023-06-24T13:56:25;3.75;;;2.85;;
21825;SDS011;11075;47.944;11.776;2023-06-24T13:58:53;4.50;;;3.00;;
21825;SDS011;11075;47.944;11.776;2023-06-24T14:01:21;3.53;;;3.22;;
21825;SDS011;11075;47.944;11.776;2023-06-24T14:03:49;4.90;;;3.10;;
21825;SDS011;11075;47.944;11.776;2023-06-24T14:06:19;2.95;;;2.72;;
21825;SDS011;11075;47.944;11.776;2023-06-24T14:08:47;3.22;;;2.85;;
21825;SDS011;11075;47.944;11.776;2023-06-24T14:11:14;3.58;;;2.60;;
21825;SDS011;11075;47.944;11.776;2023-06-24T14:13:41;3.30;;;3.08;;
21825;SDS011;11075;47.944;11.776;2023-06-24T14:16:09;4.60;;;3.15;;
21825;SDS011;11075;47.944;11.776;2023-06-24T14:18:37;3.03;;;2.60;;
21825;SDS011;11075;47.944;11.776;2023-06-24T14:21:05;4.80;;;3.13;;
21825;SDS011;11075;47.944;11.776;2023-06-24T14:23:33;7.05;;;3.13;;
21825;SDS011;11075;47.944;11.776;2023-06-24T14:26:00;3.53;;;3.22;;
21825;SDS011;11075;47.944;11.776;2023-06-24T14:28:27;3.22;;;2.80;;
21825;SDS011;11075;47.944;11.776;2023-06-24T14:30:54;3.50;;;3.20;;
21825;SDS011;11075;47.944;11.776;2023-06-24T14:33:21;4.07;;;3.67;;
21825;SDS011;11075;47.944;11.776;2023-06-24T14:35:48;3.38;;;2.88;;
21825;SDS011;11075;47.944;11.776;2023-06-24T14:38:17;3.60;;;3.08;;
21825;SDS011;11075;47.944;11.776;2023-06-24T14:40:44;4.05;;;3.08;;
21825;SDS011;11075;47.944;11.776;2023-06-24T14:43:11;3.28;;;2.97;;
21825;SDS011;11075;47.944;11.776;2023-06-24T14:45:38;3.05;;;2.63;;
21825;SDS011;11075;47.944;11.776;2023-06-24T14:48:05;3.40;;;3.08;;
21825;SDS011;11075;47.944;11.776;2023-06-24T14:50:32;4.22;;;2.67;;
21825;SDS011;11075;47.944;11.776;2023-06-24T14:52:59;2.97;;;2.72;;
21825;SDS011;11075;47.944;11.776;2023-06-24T14:55:26;3.63;;;2.70;;
21825;SDS011;11075;47.944;11.776;2023-06-24T14:57:53;4.30;;;2.92;;
21825;SDS011;11075;47.944;11.776;2023-06-24T15:00:20;3.83;;;3.50;;
21825;SDS011;11075;47.944;11.776;2023-06-24T15:02:46;3.72;;;3.33;;
21825;SDS011;11075;47.944;11.776;2023-06-24T15:05:13;3.85;;;3.28;;
21825;SDS011;11075;47.944;11.776;2023-06-24T15:07:40;3.45;;;3.15;;
21825;SDS011;11075;47.944;11.776;2023-06-24T15:10:07;4.43;;;3.10;;